createdAt,value
2022-10-15T00:01:15.854Z,8.55
2022-10-15T00:03:44.219Z,8.41
2022-10-15T00:06:13.862Z,8.40
2022-10-15T00:08:40.964Z,8.39
2022-10-15T00:11:12.144Z,8.39
2022-10-15T00:13:39.487Z,8.38
2022-10-15T00:16:09.542Z,8.40
2022-10-15T00:18:36.069Z,8.32
2022-10-15T00:21:06.254Z,8.32
2022-10-15T00:23:32.740Z,8.33
2022-10-15T00:26:13.991Z,8.35
2022-10-15T00:28:41.088Z,8.30
2022-10-15T00:31:11.416Z,8.35
2022-10-15T00:33:38.460Z,8.35
2022-10-15T00:36:14.533Z,8.35
2022-10-15T00:38:41.406Z,8.31
2022-10-15T00:41:12.679Z,8.29
2022-10-15T00:43:41.214Z,8.24
2022-10-15T00:46:35.690Z,8.22
2022-10-15T00:49:26.006Z,8.14
2022-10-15T00:51:56.830Z,8.06
2022-10-15T00:54:23.801Z,8.05
2022-10-15T00:56:51.654Z,7.97
2022-10-15T00:59:22.434Z,7.97
2022-10-15T01:01:48.946Z,7.97
2022-10-15T01:04:18.755Z,7.98
2022-10-15T01:06:46.043Z,7.89
2022-10-15T01:09:13.296Z,7.88
2022-10-15T01:11:44.814Z,7.87
2022-10-15T01:14:31.654Z,7.82
2022-10-15T01:17:10.142Z,7.80
2022-10-15T01:19:54.766Z,7.75
2022-10-15T01:22:49.074Z,7.66
2022-10-15T01:25:22.066Z,7.65
2022-10-15T01:27:56.812Z,7.68
2022-10-15T01:30:25.903Z,7.63
2022-10-15T01:33:11.278Z,7.64
2022-10-15T01:35:47.741Z,7.68
2022-10-15T01:38:32.362Z,7.65
2022-10-15T01:41:00.402Z,7.63
2022-10-15T01:43:43.860Z,7.50
2022-10-15T01:46:20.683Z,7.48
2022-10-15T01:48:48.695Z,7.47
2022-10-15T01:51:17.715Z,7.43
2022-10-15T01:53:45.854Z,7.44
2022-10-15T01:56:22.492Z,7.34
2022-10-15T01:58:52.007Z,7.34
2022-10-15T02:01:18.671Z,7.28
2022-10-15T02:03:52.923Z,7.22
2022-10-15T02:06:34.510Z,7.20
2022-10-15T02:09:15.443Z,7.19
2022-10-15T02:12:06.192Z,7.17
2022-10-15T02:14:47.858Z,7.10
2022-10-15T02:17:16.405Z,7.09
2022-10-15T02:19:51.746Z,7.04
2022-10-15T02:22:26.903Z,7.05
2022-10-15T02:25:03.230Z,6.96
2022-10-15T02:27:32.900Z,6.97
2022-10-15T02:30:07.524Z,6.94
2022-10-15T02:32:35.587Z,6.96
2022-10-15T02:35:03.024Z,6.88
2022-10-15T02:37:31.094Z,6.85
2022-10-15T02:39:57.675Z,6.85
2022-10-15T02:42:25.021Z,6.85
2022-10-15T02:44:51.964Z,6.79
2022-10-15T02:47:18.607Z,6.83
2022-10-15T02:49:45.112Z,6.81
2022-10-15T02:52:11.626Z,6.77
2022-10-15T02:54:38.139Z,6.74
2022-10-15T02:57:04.631Z,6.74
2022-10-15T02:59:31.106Z,6.67
2022-10-15T03:01:57.631Z,6.66
2022-10-15T03:04:24.109Z,6.62
2022-10-15T03:06:50.878Z,6.54
2022-10-15T03:09:17.402Z,6.50
2022-10-15T03:11:43.949Z,6.43
2022-10-15T03:14:10.503Z,6.33
2022-10-15T03:16:39.370Z,6.32
2022-10-15T03:19:07.709Z,6.31
2022-10-15T03:21:34.254Z,6.31
2022-10-15T03:24:00.765Z,6.35
2022-10-15T03:26:27.502Z,6.30
2022-10-15T03:28:54.045Z,6.30
2022-10-15T03:31:20.644Z,6.27
2022-10-15T03:33:47.125Z,6.17
2022-10-15T03:36:13.715Z,6.13
2022-10-15T03:38:40.208Z,6.07
2022-10-15T03:41:07.822Z,6.09
2022-10-15T03:43:37.481Z,6.07
2022-10-15T03:46:08.104Z,5.95
2022-10-15T03:48:34.627Z,5.95
2022-10-15T03:51:01.200Z,5.95
2022-10-15T03:53:27.761Z,5.88
2022-10-15T03:55:54.430Z,5.84
2022-10-15T03:58:21.062Z,5.87
2022-10-15T04:00:47.609Z,5.85
2022-10-15T04:03:14.519Z,5.82
2022-10-15T04:05:40.991Z,5.84
2022-10-15T04:08:07.527Z,5.82
2022-10-15T04:10:34.102Z,5.82
2022-10-15T04:13:00.592Z,5.84
2022-10-15T04:15:27.875Z,5.80
2022-10-15T04:17:55.705Z,5.76
2022-10-15T04:20:22.274Z,5.74
2022-10-15T04:22:48.747Z,5.67
2022-10-15T04:25:15.521Z,5.67
2022-10-15T04:27:42.019Z,5.70
2022-10-15T04:30:09.339Z,5.70
2022-10-15T04:32:35.848Z,5.67
2022-10-15T04:35:02.310Z,5.63
2022-10-15T04:37:28.838Z,5.61
2022-10-15T04:39:55.335Z,5.61
2022-10-15T04:42:22.073Z,5.62
2022-10-15T04:44:48.545Z,5.64
2022-10-15T04:47:15.045Z,5.57
2022-10-15T04:49:41.736Z,5.58
2022-10-15T04:52:08.235Z,5.57
2022-10-15T04:54:34.722Z,5.55
2022-10-15T04:57:01.279Z,5.56
2022-10-15T04:59:27.937Z,5.61
2022-10-15T05:01:54.480Z,5.62
2022-10-15T05:04:21.022Z,5.58
2022-10-15T05:06:47.507Z,5.54
2022-10-15T05:09:14.095Z,5.58
2022-10-15T05:11:40.594Z,5.58
2022-10-15T05:14:07.734Z,5.61
2022-10-15T05:16:34.243Z,5.62
2022-10-15T05:19:03.824Z,5.68
2022-10-15T05:21:31.353Z,5.69
2022-10-15T05:23:59.358Z,5.76
2022-10-15T05:26:27.759Z,5.80
2022-10-15T05:28:56.658Z,5.76
2022-10-15T05:31:25.055Z,5.80
2022-10-15T05:33:53.415Z,5.81
2022-10-15T05:36:22.120Z,5.78
2022-10-15T05:38:51.175Z,5.84
2022-10-15T05:41:18.488Z,5.92
2022-10-15T05:43:49.353Z,6.00
2022-10-15T05:46:15.879Z,6.04
2022-10-15T05:48:42.698Z,6.08
2022-10-15T05:51:12.773Z,6.11
2022-10-15T05:53:40.577Z,6.12
2022-10-15T05:56:08.388Z,6.15
2022-10-15T05:58:37.403Z,6.15
2022-10-15T06:01:07.424Z,6.19
2022-10-15T06:03:34.707Z,6.23
2022-10-15T06:06:01.705Z,6.25
2022-10-15T06:08:29.898Z,6.34
2022-10-15T06:10:56.703Z,6.41
2022-10-15T06:13:23.930Z,6.46
2022-10-15T06:15:50.436Z,6.56
2022-10-15T06:18:17.013Z,6.67
2022-10-15T06:20:44.165Z,6.74
2022-10-15T06:23:12.130Z,6.85
2022-10-15T06:25:38.686Z,6.96
2022-10-15T06:28:06.862Z,7.09
2022-10-15T06:30:33.737Z,7.22
2022-10-15T06:33:00.508Z,7.34
2022-10-15T06:35:30.338Z,7.45
2022-10-15T06:38:03.053Z,7.57
2022-10-15T06:40:30.361Z,7.69
2022-10-15T06:43:07.970Z,7.83
2022-10-15T06:45:36.851Z,7.99
2022-10-15T06:48:07.002Z,8.14
2022-10-15T06:50:34.711Z,8.29
2022-10-15T06:53:01.424Z,8.49
2022-10-15T06:55:31.299Z,8.66
2022-10-15T06:57:58.396Z,8.83
2022-10-15T07:00:25.886Z,9.05
2022-10-15T07:02:52.618Z,9.21
2022-10-15T07:05:19.469Z,9.37
2022-10-15T07:08:03.958Z,9.51
2022-10-15T07:10:30.684Z,9.66
2022-10-15T07:13:00.576Z,9.82
2022-10-15T07:15:27.653Z,9.94
2022-10-15T07:18:01.544Z,10.08
2022-10-15T07:20:29.667Z,10.24
2022-10-15T07:23:01.246Z,10.39
2022-10-15T07:25:28.066Z,10.53
2022-10-15T07:27:55.330Z,10.70
2022-10-15T07:30:23.280Z,10.81
2022-10-15T07:32:50.271Z,10.96
2022-10-15T07:35:17.040Z,11.10
2022-10-15T07:37:43.548Z,11.23
2022-10-15T07:40:10.677Z,11.34
2022-10-15T07:42:37.229Z,11.51
2022-10-15T07:45:04.027Z,11.68
2022-10-15T07:47:30.498Z,11.80
2022-10-15T07:49:56.995Z,12.01
2022-10-15T07:52:23.613Z,12.17
2022-10-15T07:54:50.254Z,12.39
2022-10-15T07:57:17.811Z,12.53
2022-10-15T07:59:44.329Z,12.67
2022-10-15T08:02:18.035Z,12.73
2022-10-15T08:04:44.839Z,12.86
2022-10-15T08:07:11.348Z,12.98
2022-10-15T08:09:37.980Z,13.11
2022-10-15T08:12:06.830Z,13.26
2022-10-15T08:14:34.890Z,13.42
2022-10-15T08:17:05.246Z,13.53
2022-10-15T08:19:31.816Z,13.56
2022-10-15T08:21:58.360Z,13.67
2022-10-15T08:24:25.071Z,13.84
2022-10-15T08:26:51.753Z,13.99
2022-10-15T08:29:18.317Z,14.13
2022-10-15T08:31:44.858Z,14.31
2022-10-15T08:34:11.411Z,14.49
2022-10-15T08:36:37.963Z,14.69
2022-10-15T08:39:07.217Z,14.89
2022-10-15T08:41:48.229Z,15.15
2022-10-15T08:44:43.746Z,15.35
2022-10-15T08:47:32.431Z,15.37
2022-10-15T08:50:01.197Z,15.46
2022-10-15T08:52:42.199Z,15.56
2022-10-15T08:55:13.324Z,15.71
2022-10-15T08:57:43.801Z,15.95
2022-10-15T09:00:10.633Z,16.26
2022-10-15T09:02:54.189Z,16.51
2022-10-15T09:05:42.611Z,16.86
2022-10-15T09:08:29.703Z,17.01
2022-10-15T09:11:14.191Z,17.11
2022-10-15T09:13:43.800Z,17.15
2022-10-15T09:16:17.351Z,17.17
2022-10-15T09:18:47.535Z,16.95
2022-10-15T09:21:14.646Z,16.94
2022-10-15T09:23:43.723Z,16.95
2022-10-15T09:26:35.327Z,17.16
2022-10-15T09:29:32.844Z,17.36
2022-10-15T09:32:07.483Z,17.45
2022-10-15T09:35:02.392Z,17.54
2022-10-15T09:37:32.813Z,17.68
2022-10-15T09:40:28.632Z,17.82
2022-10-15T09:42:58.398Z,17.98
2022-10-15T09:45:27.241Z,18.37
2022-10-15T09:48:00.311Z,18.71
2022-10-15T09:50:39.587Z,18.98
2022-10-15T09:53:39.079Z,19.38
2022-10-15T09:56:20.018Z,19.49
2022-10-15T09:58:57.961Z,19.65
2022-10-15T10:01:28.276Z,20.04
2022-10-15T10:04:17.021Z,20.24
2022-10-15T10:06:45.206Z,20.55
2022-10-15T10:09:19.076Z,20.73
2022-10-15T10:11:49.256Z,21.05
2022-10-15T10:14:26.630Z,21.19
2022-10-15T10:17:16.625Z,21.35
2022-10-15T10:19:44.470Z,21.03
2022-10-15T10:22:20.514Z,20.99
2022-10-15T10:24:48.174Z,21.07
2022-10-15T10:27:24.630Z,20.93
2022-10-15T10:30:02.654Z,21.26
2022-10-15T10:32:34.823Z,21.39
2022-10-15T10:35:04.030Z,21.50
2022-10-15T10:37:42.638Z,21.44
2022-10-15T10:40:34.219Z,21.18
2022-10-15T10:43:24.401Z,21.06
2022-10-15T10:45:55.293Z,20.93
2022-10-15T10:48:28.238Z,20.79
2022-10-15T10:51:08.017Z,20.82
2022-10-15T10:53:46.444Z,20.84
2022-10-15T10:56:15.398Z,20.63
2022-10-15T10:58:42.729Z,20.50
2022-10-15T11:01:12.990Z,20.35
2022-10-15T11:03:45.194Z,19.99
2022-10-15T11:06:40.935Z,19.98
2022-10-15T11:09:28.791Z,19.82
2022-10-15T11:12:04.557Z,19.55
2022-10-15T11:14:53.381Z,19.59
2022-10-15T11:17:57.358Z,19.58
2022-10-15T11:20:41.196Z,19.33
2022-10-15T11:23:15.916Z,19.28
2022-10-15T11:26:03.225Z,19.32
2022-10-15T11:28:59.716Z,19.30
2022-10-15T11:31:37.146Z,19.31
2022-10-15T11:34:34.990Z,19.14
2022-10-15T11:37:29.395Z,19.04
2022-10-15T11:40:15.999Z,18.95
2022-10-15T11:43:18.068Z,18.92
2022-10-15T11:46:03.346Z,18.86
2022-10-15T11:48:58.934Z,18.78
2022-10-15T11:51:48.289Z,18.85
2022-10-15T11:54:28.699Z,18.81
2022-10-15T11:56:57.204Z,18.91
2022-10-15T11:59:26.498Z,18.93
2022-10-15T12:01:59.625Z,19.00
2022-10-15T12:04:49.979Z,18.96
2022-10-15T12:07:26.953Z,18.95
2022-10-15T12:10:00.693Z,18.92
2022-10-15T12:12:45.854Z,18.92
2022-10-15T12:15:36.843Z,18.95
2022-10-15T12:18:21.351Z,18.89
2022-10-15T12:20:47.879Z,18.94
2022-10-15T12:23:39.034Z,19.09
2022-10-15T12:26:23.894Z,19.22
2022-10-15T12:28:59.495Z,19.25
2022-10-15T12:31:51.367Z,19.34
2022-10-15T12:34:42.970Z,19.32
2022-10-15T12:37:18.168Z,19.23
2022-10-15T12:39:52.294Z,19.11
2022-10-15T12:42:27.872Z,19.10
2022-10-15T12:44:55.867Z,19.01
2022-10-15T12:48:03.692Z,19.04
2022-10-15T12:50:35.482Z,18.99
2022-10-15T12:53:25.970Z,18.90
2022-10-15T12:56:34.842Z,18.80
2022-10-15T12:59:01.475Z,18.79
2022-10-15T13:01:30.354Z,18.74
2022-10-15T13:04:00.274Z,18.72
2022-10-15T13:06:33.251Z,18.74
2022-10-15T13:09:12.023Z,18.74
2022-10-15T13:11:45.971Z,18.75
2022-10-15T13:14:12.423Z,18.74
2022-10-15T13:16:47.679Z,18.75
2022-10-15T13:19:22.199Z,18.69
2022-10-15T13:21:54.720Z,18.69
2022-10-15T13:24:27.238Z,18.67
2022-10-15T13:26:55.901Z,18.66
2022-10-15T13:29:25.236Z,18.59
2022-10-15T13:31:55.054Z,18.58
2022-10-15T13:34:34.856Z,18.52
2022-10-15T13:37:03.908Z,18.52
2022-10-15T13:39:35.070Z,18.54
2022-10-15T13:42:18.033Z,18.51
2022-10-15T13:44:55.771Z,18.52
2022-10-15T13:47:46.818Z,18.45
2022-10-15T13:50:28.346Z,18.41
2022-10-15T13:53:16.681Z,18.40
2022-10-15T13:55:49.636Z,18.33
2022-10-15T13:58:21.219Z,18.29
2022-10-15T14:00:59.048Z,18.30
2022-10-15T14:03:36.727Z,18.27
2022-10-15T14:06:15.618Z,18.28
2022-10-15T14:08:42.107Z,18.21
2022-10-15T14:11:12.786Z,18.22
2022-10-15T14:13:51.127Z,18.22
2022-10-15T14:16:29.158Z,18.14
2022-10-15T14:19:06.661Z,18.10
2022-10-15T14:21:34.627Z,18.08
2022-10-15T14:24:06.309Z,18.09
2022-10-15T14:26:34.472Z,18.03
2022-10-15T14:29:03.223Z,17.98
2022-10-15T14:31:31.381Z,17.96
2022-10-15T14:33:57.947Z,17.90
2022-10-15T14:36:30.108Z,17.92
2022-10-15T14:39:22.743Z,17.87
2022-10-15T14:42:01.490Z,17.77
2022-10-15T14:44:41.936Z,17.72
2022-10-15T14:47:20.857Z,17.64
2022-10-15T14:49:48.259Z,17.62
2022-10-15T14:52:19.795Z,17.60
2022-10-15T14:55:07.234Z,17.59
2022-10-15T14:57:38.802Z,17.56
2022-10-15T15:00:16.088Z,17.53
2022-10-15T15:02:42.782Z,17.46
2022-10-15T15:05:12.354Z,17.41
2022-10-15T15:07:40.155Z,17.35
2022-10-15T15:10:08.835Z,17.29
2022-10-15T15:12:38.100Z,17.24
2022-10-15T15:15:12.695Z,17.23
2022-10-15T15:17:39.201Z,17.24
2022-10-15T15:20:06.301Z,17.20
2022-10-15T15:22:35.574Z,17.20
2022-10-15T15:25:10.216Z,17.15
2022-10-15T15:27:37.594Z,17.13
2022-10-15T15:30:06.738Z,17.08
2022-10-15T15:32:33.638Z,17.06
2022-10-15T15:35:00.487Z,17.01
2022-10-15T15:37:29.358Z,16.97
2022-10-15T15:39:56.367Z,16.98
2022-10-15T15:42:25.860Z,16.91
2022-10-15T15:44:52.602Z,16.88
2022-10-15T15:47:19.169Z,16.83
2022-10-15T15:49:46.698Z,16.81
2022-10-15T15:52:14.109Z,16.79
2022-10-15T15:54:41.275Z,16.74
2022-10-15T15:57:07.896Z,16.75
2022-10-15T15:59:34.530Z,16.60
2022-10-15T16:02:01.612Z,16.55
2022-10-15T16:04:28.205Z,16.44
2022-10-15T16:06:54.730Z,16.35
2022-10-15T16:09:23.021Z,16.35
2022-10-15T16:11:50.746Z,16.18
2022-10-15T16:14:17.343Z,16.18
2022-10-15T16:16:44.046Z,16.17
2022-10-15T16:19:10.577Z,16.13
2022-10-15T16:21:37.149Z,16.05
2022-10-15T16:24:03.862Z,16.04
2022-10-15T16:26:30.559Z,15.98
2022-10-15T16:28:57.117Z,16.01
2022-10-15T16:31:29.572Z,15.96
2022-10-15T16:33:57.513Z,15.99
2022-10-15T16:36:24.830Z,15.95
2022-10-15T16:38:51.738Z,15.92
2022-10-15T16:41:21.658Z,15.92
2022-10-15T16:43:48.822Z,15.82
2022-10-15T16:46:17.815Z,15.80
2022-10-15T16:48:44.738Z,15.86
2022-10-15T16:51:17.067Z,15.80
2022-10-15T16:53:45.413Z,15.70
2022-10-15T16:56:17.671Z,15.61
2022-10-15T16:58:44.244Z,15.53
2022-10-15T17:01:13.206Z,15.50
2022-10-15T17:03:41.147Z,15.49
2022-10-15T17:06:13.446Z,15.54
2022-10-15T17:08:43.851Z,15.51
2022-10-15T17:11:12.459Z,15.49
2022-10-15T17:13:39.278Z,15.44
2022-10-15T17:16:19.469Z,15.35
2022-10-15T17:18:46.671Z,15.29
2022-10-15T17:21:17.234Z,15.27
2022-10-15T17:23:44.044Z,15.29
2022-10-15T17:26:13.360Z,15.20
2022-10-15T17:28:40.635Z,15.19
2022-10-15T17:31:09.713Z,15.22
2022-10-15T17:33:37.325Z,15.19
2022-10-15T17:36:05.928Z,15.11
2022-10-15T17:38:32.685Z,15.09
2022-10-15T17:40:59.971Z,14.98
2022-10-15T17:43:27.427Z,14.95
2022-10-15T17:46:01.691Z,14.96
2022-10-15T17:48:28.666Z,14.94
2022-10-15T17:50:55.454Z,14.95
2022-10-15T17:53:22.022Z,14.88
2022-10-15T17:55:48.565Z,14.89
2022-10-15T17:58:16.718Z,14.91
2022-10-15T18:00:44.316Z,14.86
2022-10-15T18:03:11.730Z,14.82
2022-10-15T18:05:38.209Z,14.81
2022-10-15T18:08:04.770Z,14.75
2022-10-15T18:10:31.399Z,14.72
2022-10-15T18:12:57.970Z,14.71
2022-10-15T18:15:24.538Z,14.66
2022-10-15T18:17:51.034Z,14.68
2022-10-15T18:20:17.680Z,14.70
2022-10-15T18:22:44.231Z,14.62
2022-10-15T18:25:10.727Z,14.58
2022-10-15T18:27:37.295Z,14.58
2022-10-15T18:30:04.126Z,14.53
2022-10-15T18:32:30.622Z,14.52
2022-10-15T18:34:57.136Z,14.50
2022-10-15T18:37:24.001Z,14.47
2022-10-15T18:39:50.695Z,14.45
2022-10-15T18:42:17.178Z,14.46
2022-10-15T18:44:43.704Z,14.40
2022-10-15T18:47:11.645Z,14.33
2022-10-15T18:49:38.774Z,14.36
2022-10-15T18:52:15.819Z,14.31
2022-10-15T18:54:52.024Z,14.29
2022-10-15T18:57:18.594Z,14.26
2022-10-15T18:59:47.357Z,14.24
2022-10-15T19:02:13.917Z,14.21
2022-10-15T19:04:40.437Z,14.19
2022-10-15T19:07:06.914Z,14.21
2022-10-15T19:09:34.655Z,14.14
2022-10-15T19:12:01.349Z,14.16
2022-10-15T19:14:28.414Z,14.15
2022-10-15T19:16:56.652Z,14.11
2022-10-15T19:19:25.298Z,14.11
2022-10-15T19:21:52.707Z,14.08
2022-10-15T19:24:21.195Z,14.04
2022-10-15T19:26:49.230Z,14.00
2022-10-15T19:29:15.983Z,13.98
2022-10-15T19:31:44.646Z,13.98
2022-10-15T19:34:11.468Z,13.96
2022-10-15T19:36:40.890Z,13.97
2022-10-15T19:39:12.891Z,13.91
2022-10-15T19:41:41.083Z,13.93
2022-10-15T19:44:08.849Z,13.93
2022-10-15T19:46:36.513Z,13.96
2022-10-15T19:49:05.049Z,13.94
2022-10-15T19:51:31.692Z,13.88
2022-10-15T19:54:00.064Z,13.79
2022-10-15T19:56:27.676Z,13.83
2022-10-15T19:58:59.238Z,13.84
2022-10-15T20:01:26.827Z,13.79
2022-10-15T20:03:53.612Z,13.79
2022-10-15T20:06:20.918Z,13.80
2022-10-15T20:08:48.114Z,13.81
2022-10-15T20:11:14.675Z,13.81
2022-10-15T20:13:41.211Z,13.79
2022-10-15T20:16:10.686Z,13.77
2022-10-15T20:18:37.302Z,13.70
2022-10-15T20:21:08.863Z,13.71
2022-10-15T20:23:37.669Z,13.71
2022-10-15T20:26:10.095Z,13.72
2022-10-15T20:28:37.787Z,13.65
2022-10-15T20:31:06.455Z,13.68
2022-10-15T20:33:33.039Z,13.65
2022-10-15T20:36:07.185Z,13.67
2022-10-15T20:38:34.558Z,13.64
2022-10-15T20:41:08.950Z,13.65
2022-10-15T20:43:35.757Z,13.64
2022-10-15T20:46:02.602Z,13.63
2022-10-15T20:48:30.684Z,13.59
2022-10-15T20:50:57.480Z,13.59
2022-10-15T20:53:25.818Z,13.56
2022-10-15T20:55:52.766Z,13.59
2022-10-15T20:58:19.299Z,13.61
2022-10-15T21:00:46.210Z,13.59
2022-10-15T21:03:13.138Z,13.60
2022-10-15T21:05:39.650Z,13.60
2022-10-15T21:08:06.297Z,13.53
2022-10-15T21:10:32.861Z,13.48
2022-10-15T21:12:59.943Z,13.47
2022-10-15T21:15:27.373Z,13.49
2022-10-15T21:17:53.880Z,13.51
2022-10-15T21:20:20.427Z,13.49
2022-10-15T21:22:46.911Z,13.49
2022-10-15T21:25:13.413Z,13.52
2022-10-15T21:27:39.911Z,13.53
2022-10-15T21:30:07.099Z,13.51
2022-10-15T21:32:33.742Z,13.54
2022-10-15T21:35:00.808Z,13.57
2022-10-15T21:37:27.644Z,13.55
2022-10-15T21:39:54.367Z,13.55
2022-10-15T21:42:20.849Z,13.55
2022-10-15T21:44:47.338Z,13.59
2022-10-15T21:47:15.259Z,13.58
2022-10-15T21:49:42.107Z,13.56
2022-10-15T21:52:08.594Z,13.53
2022-10-15T21:54:35.224Z,13.56
2022-10-15T21:57:01.729Z,13.54
2022-10-15T21:59:28.223Z,13.55
2022-10-15T22:01:54.899Z,13.54
2022-10-15T22:04:21.458Z,13.53
2022-10-15T22:06:47.924Z,13.53
2022-10-15T22:09:14.574Z,13.50
2022-10-15T22:11:41.762Z,13.52
2022-10-15T22:14:12.191Z,13.51
2022-10-15T22:16:40.143Z,13.52
2022-10-15T22:19:09.602Z,13.54
2022-10-15T22:21:38.256Z,13.50
2022-10-15T22:24:17.211Z,13.47
2022-10-15T22:26:49.696Z,13.45
2022-10-15T22:29:31.806Z,13.45
2022-10-15T22:32:02.421Z,13.42
2022-10-15T22:34:28.950Z,13.43
2022-10-15T22:36:55.447Z,13.45
2022-10-15T22:39:21.961Z,13.41
2022-10-15T22:41:48.925Z,13.39
2022-10-15T22:44:18.896Z,13.38
2022-10-15T22:46:46.767Z,13.40
2022-10-15T22:49:14.169Z,13.42
2022-10-15T22:51:41.436Z,13.41
2022-10-15T22:54:08.072Z,13.38
2022-10-15T22:56:34.796Z,13.41
2022-10-15T22:59:01.342Z,13.40
2022-10-15T23:01:30.169Z,13.40
2022-10-15T23:04:01.700Z,13.41
2022-10-15T23:06:29.099Z,13.39
2022-10-15T23:08:56.838Z,13.43
2022-10-15T23:11:24.834Z,13.41
2022-10-15T23:13:57.174Z,13.39
2022-10-15T23:16:30.219Z,13.36
2022-10-15T23:19:02.482Z,13.29
2022-10-15T23:21:49.983Z,13.29
2022-10-15T23:24:18.419Z,13.32
2022-10-15T23:26:45.092Z,13.28
2022-10-15T23:29:17.479Z,13.25
2022-10-15T23:31:44.240Z,13.21
2022-10-15T23:34:15.106Z,13.21
2022-10-15T23:36:42.808Z,13.22
2022-10-15T23:39:13.565Z,13.23
2022-10-15T23:41:40.270Z,13.27
2022-10-15T23:44:06.771Z,13.27
2022-10-15T23:46:33.274Z,13.28
2022-10-15T23:48:59.813Z,13.29
2022-10-15T23:51:28.963Z,13.29
2022-10-15T23:53:57.807Z,13.28
2022-10-15T23:56:25.475Z,13.25
2022-10-15T23:58:55.598Z,13.23
